Time,TemperatureF,DewpointF,PressureIn,WindDirection,WindDirectionDegrees,WindSpeedMPH,WindSpeedGustMPH,Humidity,HourlyPrecipIn,Conditions,Clouds,dailyrainin,SoftwareType,DateUTC
2013-01-12 00:02:00,44.0,-99.9,30.18,North,357,10.0,12.0,-999,-99.99,,,-99.99,,2013-01-12 08:02:00,
2013-01-12 00:12:00,44.0,-99.9,30.18,North,2,11.0,12.0,-999,-99.99,,,-99.99,,2013-01-12 08:12:00,
2013-01-12 00:22:00,44.0,-99.9,30.18,NNE,14,9.0,12.0,-999,-99.99,,,-99.99,,2013-01-12 08:22:00,
2013-01-12 00:32:00,44.0,-99.9,30.17,North,1,10.0,12.0,-999,-99.99,,,-99.99,,2013-01-12 08:32:00,
2013-01-12 00:42:00,44.0,-99.9,30.18,North,3,12.0,14.0,-999,-99.99,,,-99.99,,2013-01-12 08:42:00,
2013-01-12 00:53:00,44.0,-99.9,30.18,North,2,11.0,12.0,-999,-99.99,,,-99.99,,2013-01-12 08:53:00,
2013-01-12 01:02:00,45.0,-99.9,30.18,North,358,10.0,12.0,-999,-99.99,,,-99.99,,2013-01-12 09:02:00,
2013-01-12 01:12:00,45.0,-99.9,30.17,North,353,10.0,12.0,-999,-99.99,,,-99.99,,2013-01-12 09:12:00,
2013-01-12 01:22:00,45.0,-99.9,30.17,North,359,9.0,12.0,-999,-99.99,,,-99.99,,2013-01-12 09:22:00,
2013-01-12 01:33:00,45.0,-99.9,30.18,NNE,28,9.0,12.0,-999,-99.99,,,-99.99,,2013-01-12 09:33:00,
2013-01-12 01:43:00,45.0,-99.9,30.18,North,5,10.0,12.0,-999,-99.99,,,-99.99,,2013-01-12 09:43:00,
2013-01-12 01:53:00,45.0,-99.9,30.18,NNE,24,10.0,12.0,-999,-99.99,,,-99.99,,2013-01-12 09:53:00,
2013-01-12 02:02:00,45.0,-99.9,30.19,NNE,28,10.0,13.0,-999,-99.99,,,-99.99,,2013-01-12 10:02:00,
2013-01-12 02:12:00,44.0,-99.9,30.19,North,1,7.0,10.0,-999,-99.99,,,-99.99,,2013-01-12 10:12:00,
2013-01-12 02:22:00,43.0,-99.9,30.19,NE,38,7.0,9.0,-999,-99.99,,,-99.99,,2013-01-12 10:22:00,
2013-01-12 02:32:00,44.0,-99.9,30.19,North,8,5.0,7.0,-999,-99.99,,,-99.99,,2013-01-12 10:32:00,
2013-01-12 02:43:00,44.0,-99.9,30.19,North,1,8.0,9.0,-999,-99.99,,,-99.99,,2013-01-12 10:43:00,
2013-01-12 02:52:00,43.0,-99.9,30.19,North,3,8.0,11.0,-999,-99.99,,,-99.99,,2013-01-12 10:52:00,
2013-01-12 03:02:00,44.0,-99.9,30.19,North,10,7.0,9.0,-999,-99.99,,,-99.99,,2013-01-12 11:02:00,
2013-01-12 03:12:00,43.0,-99.9,30.19,NE,38,4.0,7.0,-999,-99.99,,,-99.99,,2013-01-12 11:12:00,
2013-01-12 03:22:00,43.0,-99.9,30.19,NE,40,5.0,6.0,-999,-99.99,,,-99.99,,2013-01-12 11:22:00,
2013-01-12 03:33:00,43.0,-99.9,30.19,NE,42,5.0,7.0,-999,-99.99,,,-99.99,,2013-01-12 11:33:00,
2013-01-12 03:43:00,43.0,-99.9,30.19,NE,34,5.0,7.0,-999,-99.99,,,-99.99,,2013-01-12 11:43:00,
2013-01-12 03:53:00,43.0,-99.9,30.20,NNE,18,4.0,9.0,-999,-99.99,,,-99.99,,2013-01-12 11:53:00,
2013-01-12 04:03:00,43.0,-99.9,30.20,NNE,22,5.0,6.0,-999,-99.99,,,-99.99,,2013-01-12 12:03:00,
2013-01-12 04:12:00,43.0,-99.9,30.20,NNE,14,3.0,4.0,-999,-99.99,,,-99.99,,2013-01-12 12:12:00,
2013-01-12 04:22:00,43.0,-99.9,30.20,NE,53,2.0,4.0,-999,-99.99,,,-99.99,,2013-01-12 12:22:00,
2013-01-12 04:33:00,43.0,-99.9,30.19,North,-999,3.0,6.0,-999,-99.99,,,-99.99,,2013-01-12 12:33:00,
2013-01-12 04:43:00,43.0,-99.9,30.19,North,-999,3.0,6.0,-999,-99.99,,,-99.99,,2013-01-12 12:43:00,
2013-01-12 04:53:00,43.0,-99.9,30.19,NNW,341,4.0,6.0,-999,-99.99,,,-99.99,,2013-01-12 12:53:00,
2013-01-12 05:03:00,42.0,-99.9,30.19,NNW,343,6.0,7.0,-999,-99.99,,,-99.99,,2013-01-12 13:03:00,
2013-01-12 05:12:00,42.0,-99.9,30.19,North,350,6.0,7.0,-999,-99.99,,,-99.99,,2013-01-12 13:12:00,
2013-01-12 05:23:00,42.0,-99.9,30.19,North,349,5.0,6.0,-999,-99.99,,,-99.99,,2013-01-12 13:23:00,
2013-01-12 05:33:00,42.0,-99.9,30.19,North,355,4.0,7.0,-999,-99.99,,,-99.99,,2013-01-12 13:33:00,
2013-01-12 05:43:00,42.0,-99.9,30.20,NNW,348,4.0,5.0,-999,-99.99,,,-99.99,,2013-01-12 13:43:00,
2013-01-12 05:53:00,42.0,-99.9,30.20,NNW,342,4.0,5.0,-999,-99.99,,,-99.99,,2013-01-12 13:53:00,
2013-01-12 06:02:00,42.0,-99.9,30.20,NNW,342,4.0,5.0,-999,-99.99,,,-99.99,,2013-01-12 14:02:00,
2013-01-12 06:12:00,42.0,-99.9,30.21,WNW,298,3.0,5.0,-999,-99.99,,,-99.99,,2013-01-12 14:12:00,
2013-01-12 06:22:00,42.0,-99.9,30.21,WNW,298,3.0,5.0,-999,-99.99,,,-99.99,,2013-01-12 14:22:00,
2013-01-12 06:33:00,41.0,-99.9,30.22,ENE,59,2.0,4.0,-999,-99.99,,,-99.99,,2013-01-12 14:33:00,
2013-01-12 06:43:00,41.0,-99.9,30.22,NNE,26,1.0,3.0,-999,-99.99,,,-99.99,,2013-01-12 14:43:00,
2013-01-12 06:53:00,41.0,-99.9,30.23,NE,41,2.0,3.0,-999,-99.99,,,-99.99,,2013-01-12 14:53:00,
2013-01-12 07:03:00,41.0,-99.9,30.23,NNW,348,0.0,2.0,-999,-99.99,,,-99.99,,2013-01-12 15:03:00,
2013-01-12 07:23:00,41.0,-99.9,30.23,NNE,20,2.0,3.0,-999,-99.99,,,-99.99,,2013-01-12 15:23:00,
2013-01-12 07:34:00,41.0,-99.9,30.23,NNE,20,2.0,3.0,-999,-99.99,,,-99.99,,2013-01-12 15:34:00,
2013-01-12 07:43:00,41.0,-99.9,30.24,ENE,71,4.0,5.0,-999,-99.99,,,-99.99,,2013-01-12 15:43:00,
2013-01-12 07:53:00,40.0,-99.9,30.24,ENE,68,3.0,4.0,-999,-99.99,,,-99.99,,2013-01-12 15:53:00,
2013-01-12 08:03:00,40.0,-99.9,30.24,ENE,68,3.0,4.0,-999,-99.99,,,-99.99,,2013-01-12 16:03:00,
2013-01-12 08:13:00,40.0,-99.9,30.24,ENE,68,3.0,4.0,-999,-99.99,,,-99.99,,2013-01-12 16:13:00,
2013-01-12 08:23:00,40.0,-99.9,30.24,ENE,68,3.0,4.0,-999,-99.99,,,-99.99,,2013-01-12 16:23:00,
2013-01-12 08:33:00,42.0,-99.9,30.24,ENE,76,2.0,4.0,-999,-99.99,,,-99.99,,2013-01-12 16:33:00,
2013-01-12 08:43:00,42.0,-99.9,30.24,ENE,76,2.0,4.0,-999,-99.99,,,-99.99,,2013-01-12 16:43:00,
2013-01-12 08:53:00,42.0,-99.9,30.25,ENE,77,2.0,5.0,-999,-99.99,,,-99.99,,2013-01-12 16:53:00,
2013-01-12 09:03:00,42.0,-99.9,30.25,ENE,77,2.0,5.0,-999,-99.99,,,-99.99,,2013-01-12 17:03:00,
2013-01-12 09:13:00,42.0,-99.9,30.25,ENE,77,2.0,5.0,-999,-99.99,,,-99.99,,2013-01-12 17:13:00,
2013-01-12 09:23:00,42.0,-99.9,30.25,ENE,77,2.0,5.0,-999,-99.99,,,-99.99,,2013-01-12 17:23:00,
2013-01-12 10:33:00,45.0,-99.9,30.25,NNE,33,2.0,5.0,-999,-99.99,,,-99.99,,2013-01-12 18:33:00,
2013-01-12 10:43:00,44.0,-99.9,30.25,WNW,290,4.0,5.0,-999,-99.99,,,-99.99,,2013-01-12 18:43:00,
2013-01-12 11:03:00,44.0,-99.9,30.25,West,280,1.0,4.0,-999,-99.99,,,-99.99,,2013-01-12 19:03:00,
2013-01-12 11:12:00,45.0,-99.9,30.24,West,259,2.0,3.0,-999,-99.99,,,-99.99,,2013-01-12 19:12:00,
2013-01-12 11:23:00,46.0,-99.9,30.24,SW,227,2.0,4.0,-999,-99.99,,,-99.99,,2013-01-12 19:23:00,
2013-01-12 11:33:00,46.0,-99.9,30.24,SSW,204,3.0,4.0,-999,-99.99,,,-99.99,,2013-01-12 19:33:00,
2013-01-12 11:43:00,47.0,-99.9,30.23,SW,222,3.0,4.0,-999,-99.99,,,-99.99,,2013-01-12 19:43:00,
2013-01-12 11:53:00,46.0,-99.9,30.22,SSW,199,3.0,4.0,-999,-99.99,,,-99.99,,2013-01-12 19:53:00,
2013-01-12 12:03:00,46.0,-99.9,30.22,WSW,254,2.0,3.0,-999,-99.99,,,-99.99,,2013-01-12 20:03:00,
2013-01-12 12:13:00,47.0,-99.9,30.22,SW,218,2.0,3.0,-999,-99.99,,,-99.99,,2013-01-12 20:13:00,
2013-01-12 12:22:00,47.0,-99.9,30.21,SSW,211,4.0,5.0,-999,-99.99,,,-99.99,,2013-01-12 20:22:00,
2013-01-12 12:43:00,47.0,-99.9,30.20,SSW,206,2.0,4.0,-999,-99.99,,,-99.99,,2013-01-12 20:43:00,
2013-01-12 12:53:00,47.0,-99.9,30.20,WSW,243,2.0,3.0,-999,-99.99,,,-99.99,,2013-01-12 20:53:00,
2013-01-12 13:03:00,47.0,-99.9,30.19,SW,236,2.0,3.0,-999,-99.99,,,-99.99,,2013-01-12 21:03:00,
2013-01-12 13:12:00,48.0,-99.9,30.19,SW,227,2.0,4.0,-999,-99.99,,,-99.99,,2013-01-12 21:12:00,
2013-01-12 13:22:00,48.0,-99.9,30.19,SW,235,2.0,3.0,-999,-99.99,,,-99.99,,2013-01-12 21:22:00,
2013-01-12 13:33:00,48.0,-99.9,30.18,WSW,243,2.0,3.0,-999,-99.99,,,-99.99,,2013-01-12 21:33:00,
2013-01-12 13:43:00,48.0,-99.9,30.18,South,175,2.0,5.0,-999,-99.99,,,-99.99,,2013-01-12 21:43:00,
2013-01-12 13:53:00,49.0,-99.9,30.18,SSW,208,2.0,4.0,-999,-99.99,,,-99.99,,2013-01-12 21:53:00,
2013-01-12 14:03:00,48.0,-99.9,30.17,SW,221,2.0,3.0,-999,-99.99,,,-99.99,,2013-01-12 22:03:00,
2013-01-12 14:12:00,48.0,-99.9,30.17,SW,217,2.0,3.0,-999,-99.99,,,-99.99,,2013-01-12 22:12:00,
2013-01-12 14:23:00,49.0,-99.9,30.17,SW,225,2.0,3.0,-999,-99.99,,,-99.99,,2013-01-12 22:23:00,
2013-01-12 14:33:00,49.0,-99.9,30.17,SW,228,2.0,3.0,-999,-99.99,,,-99.99,,2013-01-12 22:33:00,
2013-01-12 14:44:00,49.0,-99.9,30.17,WSW,237,1.0,3.0,-999,-99.99,,,-99.99,,2013-01-12 22:44:00,
2013-01-12 14:53:00,49.0,-99.9,30.16,South,187,2.0,3.0,-999,-99.99,,,-99.99,,2013-01-12 22:53:00,
2013-01-12 15:03:00,49.0,-99.9,30.16,South,173,2.0,4.0,-999,-99.99,,,-99.99,,2013-01-12 23:03:00,
2013-01-12 15:13:00,49.0,-99.9,30.16,SSE,160,2.0,4.0,-999,-99.99,,,-99.99,,2013-01-12 23:13:00,
2013-01-12 15:33:00,49.0,-99.9,30.16,SE,128,2.0,4.0,-999,-99.99,,,-99.99,,2013-01-12 23:33:00,
2013-01-12 15:43:00,49.0,-99.9,30.15,SSE,147,3.0,4.0,-999,-99.99,,,-99.99,,2013-01-12 23:43:00,
2013-01-12 15:53:00,49.0,-99.9,30.15,ESE,122,2.0,4.0,-999,-99.99,,,-99.99,,2013-01-12 23:53:00,
2013-01-12 16:03:00,49.0,-99.9,30.15,SSE,148,3.0,4.0,-999,-99.99,,,-99.99,,2013-01-13 00:03:00,
2013-01-12 16:13:00,49.0,-99.9,30.15,SSE,167,4.0,5.0,-999,-99.99,,,-99.99,,2013-01-13 00:13:00,
2013-01-12 16:23:00,48.0,-99.9,30.15,SSE,161,4.0,6.0,-999,-99.99,,,-99.99,,2013-01-13 00:23:00,
2013-01-12 16:33:00,48.0,-99.9,30.15,SSE,165,4.0,6.0,-999,-99.99,,,-99.99,,2013-01-13 00:33:00,
2013-01-12 16:43:00,48.0,-99.9,30.15,SSE,165,4.0,6.0,-999,-99.99,,,-99.99,,2013-01-13 00:43:00,
2013-01-12 16:53:00,48.0,-99.9,30.15,SSE,161,5.0,7.0,-999,-99.99,,,-99.99,,2013-01-13 00:53:00,
2013-01-12 17:03:00,48.0,-99.9,30.15,South,170,4.0,7.0,-999,-99.99,,,-99.99,,2013-01-13 01:03:00,
2013-01-12 17:12:00,49.0,-99.9,30.15,South,186,3.0,5.0,-999,-99.99,,,-99.99,,2013-01-13 01:12:00,
2013-01-12 17:23:00,48.0,-99.9,30.15,South,190,2.0,5.0,-999,-99.99,,,-99.99,,2013-01-13 01:23:00,
2013-01-12 17:33:00,48.0,-99.9,30.15,West,261,3.0,5.0,-999,-99.99,,,-99.99,,2013-01-13 01:33:00,
2013-01-12 17:43:00,48.0,-99.9,30.15,WSW,250,2.0,6.0,-999,-99.99,,,-99.99,,2013-01-13 01:43:00,
2013-01-12 17:53:00,48.0,-99.9,30.15,West,270,3.0,5.0,-999,-99.99,,,-99.99,,2013-01-13 01:53:00,
2013-01-12 18:03:00,48.0,-99.9,30.16,WSW,247,3.0,5.0,-999,-99.99,,,-99.99,,2013-01-13 02:03:00,
2013-01-12 18:13:00,48.0,-99.9,30.16,WSW,246,2.0,5.0,-999,-99.99,,,-99.99,,2013-01-13 02:13:00,
2013-01-12 18:23:00,48.0,-99.9,30.16,West,264,3.0,4.0,-999,-99.99,,,-99.99,,2013-01-13 02:23:00,
2013-01-12 18:33:00,47.0,-99.9,30.16,West,279,4.0,6.0,-999,-99.99,,,-99.99,,2013-01-13 02:33:00,
2013-01-12 18:43:00,47.0,-99.9,30.16,West,281,3.0,5.0,-999,-99.99,,,-99.99,,2013-01-13 02:43:00,
2013-01-12 18:53:00,47.0,-99.9,30.16,West,281,3.0,5.0,-999,-99.99,,,-99.99,,2013-01-13 02:53:00,
2013-01-12 19:03:00,47.0,-99.9,30.15,West,271,3.0,6.0,-999,-99.99,,,-99.99,,2013-01-13 03:03:00,
2013-01-12 19:12:00,47.0,-99.9,30.15,WSW,240,4.0,6.0,-999,-99.99,,,-99.99,,2013-01-13 03:12:00,
2013-01-12 19:22:00,47.0,-99.9,30.15,West,275,3.0,7.0,-999,-99.99,,,-99.99,,2013-01-13 03:22:00,
2013-01-12 19:33:00,47.0,-99.9,30.15,WNW,283,3.0,5.0,-999,-99.99,,,-99.99,,2013-01-13 03:33:00,
2013-01-12 19:43:00,47.0,-99.9,30.15,West,273,4.0,5.0,-999,-99.99,,,-99.99,,2013-01-13 03:43:00,
2013-01-12 19:53:00,47.0,-99.9,30.16,NW,306,4.0,6.0,-999,-99.99,,,-99.99,,2013-01-13 03:53:00,
2013-01-12 20:03:00,47.0,-99.9,30.16,NNW,345,5.0,5.0,-999,-99.99,,,-99.99,,2013-01-13 04:03:00,
2013-01-12 20:12:00,47.0,-99.9,30.16,NNW,338,4.0,5.0,-999,-99.99,,,-99.99,,2013-01-13 04:12:00,
2013-01-12 20:33:00,47.0,-99.9,30.16,NNE,27,4.0,5.0,-999,-99.99,,,-99.99,,2013-01-13 04:33:00,
2013-01-12 20:43:00,46.0,-99.9,30.16,NE,43,3.0,4.0,-999,-99.99,,,-99.99,,2013-01-13 04:43:00,
2013-01-12 20:53:00,46.0,-99.9,30.16,NNE,32,2.0,4.0,-999,-99.99,,,-99.99,,2013-01-13 04:53:00,
2013-01-12 21:03:00,46.0,-99.9,30.15,NNE,28,2.0,3.0,-999,-99.99,,,-99.99,,2013-01-13 05:03:00,
2013-01-12 21:12:00,46.0,-99.9,30.16,NNE,22,2.0,3.0,-999,-99.99,,,-99.99,,2013-01-13 05:12:00,
2013-01-12 21:23:00,46.0,-99.9,30.16,NNE,28,4.0,6.0,-999,-99.99,,,-99.99,,2013-01-13 05:23:00,
2013-01-12 21:33:00,45.0,-99.9,30.16,NE,41,6.0,7.0,-999,-99.99,,,-99.99,,2013-01-13 05:33:00,
2013-01-12 21:42:00,45.0,-99.9,30.16,NE,50,5.0,7.0,-999,-99.99,,,-99.99,,2013-01-13 05:42:00,
2013-01-12 21:53:00,45.0,-99.9,30.16,NE,52,7.0,8.0,-999,-99.99,,,-99.99,,2013-01-13 05:53:00,
2013-01-12 22:03:00,44.0,-99.9,30.16,NE,47,7.0,9.0,-999,-99.99,,,-99.99,,2013-01-13 06:03:00,
2013-01-12 22:12:00,44.0,-99.9,30.16,NE,46,7.0,9.0,-999,-99.99,,,-99.99,,2013-01-13 06:12:00,
2013-01-12 22:22:00,44.0,-99.9,30.16,NE,52,7.0,9.0,-999,-99.99,,,-99.99,,2013-01-13 06:22:00,
2013-01-12 22:33:00,44.0,-99.9,30.16,NE,50,7.0,10.0,-999,-99.99,,,-99.99,,2013-01-13 06:33:00,
2013-01-12 22:43:00,43.0,-99.9,30.17,NE,53,9.0,11.0,-999,-99.99,,,-99.99,,2013-01-13 06:43:00,
2013-01-12 22:53:00,44.0,-99.9,30.18,NE,56,6.0,10.0,-999,-99.99,,,-99.99,,2013-01-13 06:53:00,
2013-01-12 23:02:00,44.0,-99.9,30.18,NE,48,6.0,9.0,-999,-99.99,,,-99.99,,2013-01-13 07:02:00,
2013-01-12 23:12:00,44.0,-99.9,30.18,NE,48,6.0,9.0,-999,-99.99,,,-99.99,,2013-01-13 07:12:00,
2013-01-12 23:22:00,44.0,-99.9,30.19,NE,51,8.0,11.0,-999,-99.99,,,-99.99,,2013-01-13 07:22:00,
2013-01-12 23:33:00,44.0,-99.9,30.19,NE,51,5.0,8.0,-999,-99.99,,,-99.99,,2013-01-13 07:33:00,
2013-01-12 23:42:00,44.0,-99.9,30.19,NE,51,5.0,8.0,-999,-99.99,,,-99.99,,2013-01-13 07:42:00,
2013-01-12 23:53:00,44.0,-99.9,30.19,NE,47,5.0,6.0,-999,-99.99,,,-99.99,,2013-01-13 07:53:00,